M I D A S
Marine Information and Data Acquisition System
Tripno 948 of the Zeeleeuw from 2005-07-08 06:37:41 to 2005-07-08 14:21:59
Back to CruiseResearch ActivitiesStationsMapUnderway DataData graphs

EquipmentUnitsComment
TimeDGPSUTC
LatitudeDGPSDM.mWGS84
LongitudeDGPSDM.mWGS84
TemperatureSBE03/SBE38deg celciusITS90
ConductivitySBE21S/mITS90
SalinitySBE21 Practical Salinity Units
ChlorophylAChelsea fluorimeterg/lCalibrated in Aceton
Missing or incorrect values are displayed as -999
Sea surface data collected by the RV Zeeleeuw from 2005-07-08 06:32:46 to 2005-07-08 14:33:27
Time Latitude Longitude Temperature Conductivity Salinity ChlorophylA
2005-07-08 06:33:51 51°13.681 2°55.905 20.6309 3.595354 25.82644 0.095195
2005-07-08 06:34:52 51°13.681 2°55.904 20.6365 3.595248 25.826481 0.061486
2005-07-08 06:35:51 51°13.682 2°55.904 20.6467 3.595248 25.826481 0.061486
2005-07-08 06:36:52 51°13.682 2°55.904 20.655 3.595143 25.826522 0.095195
2005-07-08 06:37:51 51°13.682 2°55.904 20.6803 3.595038 25.826123 0.061486
2005-07-08 06:38:51 51°13.684 2°55.896 20.6674 3.594932 25.826604 0.061486
2005-07-08 06:39:52 51°13.707 2°55.808 20.6868 3.594932 25.827483 0.061486
2005-07-08 06:40:51 51°13.725 2°55.732 20.6031 3.594722 25.825806 0.095195
2005-07-08 06:41:51 51°13.72 2°55.711 20.6841 3.594722 25.825806 0.095195
2005-07-08 06:42:52 51°13.763 2°55.683 20.6537 3.594616 25.824967 0.095195
2005-07-08 06:43:51 51°13.868 2°55.621 20.6737 3.594511 25.826768 0.095195
2005-07-08 06:44:51 51°13.996 2°55.542 20.6866 3.594406 25.827249 0.061486
2005-07-08 06:45:51 51°14.137 2°55.417 20.6915 3.594406 25.827249 0.095195
2005-07-08 06:46:51 51°14.282 2°55.224 20.6866 3.5943 25.82729 0.061486
2005-07-08 06:47:51 51°14.403 2°54.977 20.4515 3.593984 25.826093 0.061486
2005-07-08 06:48:51 51°14.539 2°54.708 20.539 3.593773 25.826175 0.095195
2005-07-08 06:49:52 51°14.716 2°54.501 20.6468 3.593563 25.827137 0.095195
2005-07-08 06:50:51 51°14.895 2°54.318 20.6807 3.593247 25.827261 0.061486
2005-07-08 06:51:51 51°15.076 2°54.135 20.7146 3.592615 25.824867 0.061486
2005-07-08 06:52:51 51°15.258 2°53.949 20.7739 3.591983 25.823793 0.095195
2005-07-08 06:53:51 51°15.439 2°53.751 20.8018 3.591772 25.825637 0.095195
2005-07-08 06:54:51 51°15.623 2°53.548 20.8033 3.590718 25.820765 0.095195
2005-07-08 06:55:51 51°15.806 2°53.357 20.831 3.590508 25.822609 0.095195
2005-07-08 06:56:51 51°15.991 2°53.176 20.8359 3.590508 25.825251 0.095195
2005-07-08 06:57:51 51°16.178 2°53.003 20.8563 3.589033 25.8179 0.095195
2005-07-08 06:58:51 51°16.377 2°52.872 20.8634 3.588295 25.815545 0.095195
2005-07-08 06:59:51 51°16.582 2°52.766 20.8864 3.587979 25.816109 0.095195
2005-07-08 07:00:51 51°16.787 2°52.683 20.8884 3.587663 25.817115 0.095195
2005-07-08 07:01:51 51°16.993 2°52.609 20.9056 3.586715 25.813079 0.095195
2005-07-08 07:02:52 51°17.202 2°52.535 20.921 3.586083 25.811563 0.061486
2005-07-08 07:03:51 51°17.406 2°52.46 20.9311 3.585451 25.810048 0.095195
2005-07-08 07:04:51 51°17.611 2°52.381 20.9373 3.585346 25.812734 0.095195
2005-07-08 07:05:51 51°17.817 2°52.351 20.9654 3.584713 25.810777 0.061486
2005-07-08 07:06:51 51°18.02 2°52.387 20.9806 3.583765 25.807181 0.061486
2005-07-08 07:07:51 51°18.223 2°52.417 20.9943 3.582712 25.80186 0.061486
2005-07-08 07:08:51 51°18.422 2°52.439 21.0085 3.58229 25.802025 0.095195
2005-07-08 07:09:51 51°18.622 2°52.46 21.0539 3.582185 25.802066 0.061486
2005-07-08 07:10:52 51°18.825 2°52.479 21.0701 3.58229 25.80423 0.095195
2005-07-08 07:11:51 51°19.025 2°52.482 21.0854 3.581658 25.800949 0.095195
2005-07-08 07:12:51 51°19.227 2°52.486 21.1096 3.581342 25.800632 0.061486
2005-07-08 07:13:51 51°19.431 2°52.491 21.1237 3.581026 25.799432 0.061486
2005-07-08 07:14:51 51°19.633 2°52.493 21.1439 3.580605 25.797832 0.095195
2005-07-08 07:15:51 51°19.834 2°52.497 21.1484 3.580605 25.799156 0.061486
2005-07-08 07:16:51 51°20.036 2°52.501 21.1613 3.580394 25.798356 0.095195
2005-07-08 07:17:51 51°20.24 2°52.505 21.1727 3.580078 25.797597 0.095195
2005-07-08 07:18:51 51°20.441 2°52.505 21.1838 3.579551 25.794715 0.061486
2005-07-08 07:19:52 51°20.649 2°52.502 21.1964 3.579657 25.79688 0.095195
2005-07-08 07:20:51 51°20.849 2°52.508 21.208 3.579446 25.796962 0.095195
2005-07-08 07:21:52 51°21.055 2°52.484 21.2185 3.579341 25.798328 0.095195
2005-07-08 07:22:51 51°21.225 2°52.268 21.229 3.579341 25.797004 0.027777
2005-07-08 07:23:51 51°21.381 2°52.01 21.2401 3.578603 25.794203 0.061486
2005-07-08 07:24:51 51°21.544 2°51.761 21.2516 3.578919 25.79761 0.061486
2005-07-08 07:25:52 51°21.725 2°51.553 21.2619 3.578498 25.796893 0.061486
2005-07-08 07:26:51 51°21.927 2°51.44 21.2734 3.578077 25.795292 0.095195
2005-07-08 07:27:51 51°22.136 2°51.406 21.2843 3.577339 25.792933 0.095195
2005-07-08 07:28:52 51°22.343 2°51.432 21.2952 3.577444 25.795099 0.061486
2005-07-08 07:29:51 51°22.547 2°51.468 21.3051 3.577128 25.796548 0.061486
2005-07-08 07:30:52 51°22.753 2°51.497 21.3162 3.577128 25.796548 0.061486
2005-07-08 07:31:52 51°22.959 2°51.524 21.3268 3.576075 25.791663 0.061486
2005-07-08 07:32:51 51°23.161 2°51.549 21.338 3.576286 25.793347 0.095195
2005-07-08 07:33:51 51°23.362 2°51.578 21.3474 3.576075 25.792988 0.095195
2005-07-08 07:34:51 51°23.564 2°51.609 21.357 3.575548 25.790986 0.061486
2005-07-08 07:35:51 51°23.764 2°51.634 21.3677 3.575654 25.791387 0.061486
2005-07-08 07:36:52 51°23.969 2°51.658 21.3778 3.575443 25.79147 0.095195
2005-07-08 07:37:51 51°24.169 2°51.68 21.3877 3.575232 25.791994 0.027777
2005-07-08 07:38:52 51°24.376 2°51.702 21.3997 3.575127 25.792036 0.095195
2005-07-08 07:39:52 51°24.579 2°51.721 21.409 3.575338 25.795046 0.061486
2005-07-08 07:40:51 51°24.779 2°51.743 21.4189 3.574705 25.791318 0.061486
2005-07-08 07:41:51 51°24.98 2°51.765 21.4302 3.574179 25.788433 0.061486
2005-07-08 07:42:52 51°25.188 2°51.798 21.4379 3.574073 25.789358 0.061486
2005-07-08 07:43:51 51°25.388 2°51.84 21.4485 3.573757 25.787715 0.061486
2005-07-08 07:44:52 51°25.589 2°51.89 21.4598 3.573863 25.789883 0.061486
2005-07-08 07:45:52 51°25.778 2°52.003 21.4662 3.573547 25.788239 0.061486
2005-07-08 07:46:51 51°25.946 2°52.154 21.4771 3.573336 25.78788 0.095195
2005-07-08 07:47:52 51°26.124 2°52.305 21.4857 3.573757 25.790808 0.061486
2005-07-08 07:48:51 51°26.296 2°52.461 21.4975 3.573336 25.788764 0.027777
2005-07-08 07:49:51 51°26.47 2°52.621 21.5086 3.573125 25.787963 0.061486
2005-07-08 07:50:51 51°26.646 2°52.779 21.5186 3.573441 25.790049 0.095195
2005-07-08 07:51:52 51°26.825 2°52.932 21.5293 3.573441 25.790049 0.095195
2005-07-08 07:52:51 51°26.998 2°53.085 21.534 3.573547 25.789565 0.061486
2005-07-08 07:53:51 51°27.17 2°53.242 21.5481 3.573547 25.790007 0.061486
2005-07-08 07:54:52 51°27.349 2°53.376 21.5574 3.573125 25.785312 0.061486
2005-07-08 07:55:52 51°27.53 2°53.504 21.5694 3.573968 25.791609 0.095195
2005-07-08 07:56:52 51°27.711 2°53.634 21.5762 3.573547 25.787356 0.095195
2005-07-08 07:57:51 51°27.89 2°53.764 21.5849 3.574073 25.789358 0.027777
2005-07-08 07:58:51 51°28.07 2°53.898 21.5947 3.574073 25.7898 0.061486
2005-07-08 07:59:51 51°28.252 2°54.032 21.6069 3.574389 25.791001 0.061486
2005-07-08 08:00:51 51°28.434 2°54.167 21.6208 3.575022 25.794729 0.061486
2005-07-08 08:01:51 51°28.615 2°54.301 21.6261 3.574916 25.793886 0.061486
2005-07-08 08:02:51 51°28.796 2°54.436 21.6395 3.575022 25.793403 0.061486
2005-07-08 08:03:51 51°28.978 2°54.569 21.649 3.575443 25.79412 0.061486
2005-07-08 08:04:51 51°29.164 2°54.697 17.7179 3.469337 24.049897 0.095195
2005-07-08 08:05:51 51°29.348 2°54.821 17.5744 4.36499 33.137102 6.870785
2005-07-08 08:06:51 51°29.533 2°54.945 17.5412 4.359403 33.221557 5.589828
2005-07-08 08:07:51 51°29.717 2°55.067 17.537 4.305516 32.789842 5.185315
2005-07-08 08:08:51 51°29.9 2°55.188 17.5314 4.286008 32.634396 5.4887
2005-07-08 08:09:51 51°30.082 2°55.311 17.5372 4.360353 33.274275 5.45499
2005-07-08 08:10:51 51°30.265 2°55.431 17.5369 4.359193 33.263185 5.45499
2005-07-08 08:11:51 51°30.449 2°55.556 17.5237 4.356135 33.242452 6.365144
2005-07-08 08:12:51 51°30.634 2°55.675 17.5216 4.357084 33.25472 5.758375
2005-07-08 08:13:51 51°30.814 2°55.798 17.4839 4.352761 33.234497 6.297725
2005-07-08 08:14:52 51°30.998 2°55.914 17.4467 4.351707 33.251126 6.60111
2005-07-08 08:15:51 51°31.178 2°56.027 17.4093 4.357613 33.330292 6.634819
2005-07-08 08:16:52 51°31.366 2°56.124 17.408 4.356242 33.344322 5.859503
2005-07-08 08:17:51 51°31.494 2°56.201 17.4096 4.353922 33.323267 7.039332
2005-07-08 08:18:51 51°31.578 2°56.251 17.421 4.356875 33.350337 6.297725
2005-07-08 08:19:51 51°31.657 2°56.277 17.4237 4.362359 33.382276 6.668529
2005-07-08 08:20:51 51°31.721 2°56.333 17.4075 4.362781 33.392486 5.994341
2005-07-08 08:21:51 51°31.734 2°56.369 17.4103 4.362781 33.4093 5.589828
2005-07-08 08:22:51 51°31.73 2°56.367 17.4066 4.364468 33.415337 5.657247
2005-07-08 08:23:51 51°31.719 2°56.358 17.4112 4.36489 33.424357 6.02805
2005-07-08 08:24:51 51°31.706 2°56.348 17.3909 4.365206 33.426465 6.5674
2005-07-08 08:25:51 51°31.764 2°56.438 17.3765 4.36025 33.396637 6.432563
2005-07-08 08:26:52 51°31.836 2°56.61 17.3653 4.365523 33.45083 5.859503
2005-07-08 08:27:51 51°31.887 2°56.814 17.3525 4.357298 33.387565 6.02805
2005-07-08 08:28:51 51°31.928 2°56.994 17.3836 4.359301 33.417968 5.252734
2005-07-08 08:29:51 51°31.932 2°57.038 17.3641 4.362676 33.425831 5.185315
2005-07-08 08:30:51 51°31.908 2°57.049 17.3397 4.362992 33.448406 5.151606
2005-07-08 08:31:51 51°31.883 2°57.055 17.3224 4.366051 33.490309 5.522409
2005-07-08 08:32:51 51°31.859 2°57.055 17.3275 4.364997 33.496352 4.477418
2005-07-08 08:33:51 51°31.837 2°57.054 17.343 4.365629 33.493329 5.185315
2005-07-08 08:34:51 51°31.816 2°57.048 17.3562 4.367527 33.495732 4.91564
2005-07-08 08:35:52 51°31.808 2°57.059 17.3659 4.367316 33.484875 4.578546
2005-07-08 08:36:51 51°31.889 2°57.17 17.3238 4.367105 33.474025 5.185315
2005-07-08 08:37:51 51°32.001 2°57.314 17.2592 4.368266 33.532874 5.050477
2005-07-08 08:38:51 51°32.095 2°57.457 17.3087 4.363837 33.527504 4.88193
2005-07-08 08:39:51 51°32.126 2°57.497 17.352 4.362888 33.480666 5.792084
2005-07-08 08:40:51 51°32.129 2°57.484 17.3738 4.361516 33.43876 5.421281
2005-07-08 08:41:52 51°32.123 2°57.466 17.3718 4.361938 33.42853 5.286443
2005-07-08 08:42:51 51°32.12 2°57.449 17.3619 4.361938 33.42853 5.623537
2005-07-08 08:43:51 51°32.165 2°57.516 17.3505 4.361516 33.42311 5.589828
2005-07-08 08:44:51 51°32.245 2°57.698 17.3123 4.359513 33.430613 6.095469
2005-07-08 08:45:52 51°32.341 2°57.9 17.2733 4.363204 33.491836 5.4887
2005-07-08 08:46:51 51°32.431 2°58.1 17.3365 4.361095 33.494875 5.994341
2005-07-08 08:47:52 51°32.521 2°58.305 17.388 4.357087 33.409213 5.758375
2005-07-08 08:48:51 51°32.562 2°58.547 17.3877 4.354134 33.350254 5.825794
2005-07-08 08:49:51 51°32.577 2°58.809 17.3821 4.35213 33.330696 5.623537
2005-07-08 08:50:51 51°32.599 2°59.061 17.5439 4.345169 33.252559 5.859503
2005-07-08 08:51:51 51°32.624 2°59.308 17.6026 4.333145 33.033368 6.129178
2005-07-08 08:52:51 51°32.64 2°59.495 17.6459 4.331563 32.979158 5.960631
2005-07-08 08:53:51 51°32.669 2°59.626 17.6621 4.331562 32.945006 6.162888
2005-07-08 08:54:51 51°32.671 2°59.656 17.6642 4.330508 32.9284 5.825794
2005-07-08 08:55:52 51°32.662 2°59.659 17.6729 4.330191 32.921011 5.623537
2005-07-08 08:56:51 51°32.648 2°59.654 17.6575 4.330613 32.916959 5.117896
2005-07-08 08:57:51 51°32.635 2°59.643 17.6472 4.32629 32.896076 5.556118
2005-07-08 08:58:51 51°32.619 2°59.631 17.6509 4.321966 32.863442 4.713383
2005-07-08 08:59:52 51°32.604 2°59.62 17.6477 4.325446 32.891255 4.780802
2005-07-08 09:00:52 51°32.59 2°59.61 17.6445 4.323442 32.875988 4.814512
2005-07-08 09:01:51 51°32.576 2°59.602 17.6571 4.323548 32.87571 4.612255
2005-07-08 09:02:51 51°32.562 2°59.593 17.6424 4.289698 32.585326 5.320153
2005-07-08 09:03:51 51°32.548 2°59.587 17.6652 4.283898 32.539597 4.578546
2005-07-08 09:04:51 51°32.547 2°59.615 17.6786 4.289803 32.575175 4.949349
2005-07-08 09:05:51 51°32.603 2°59.697 17.7027 4.293704 32.597229 4.34258
2005-07-08 09:06:52 51°32.702 2°59.819 17.6877 4.329136 32.879783 5.050477
2005-07-08 09:07:52 51°32.803 2°59.953 17.7141 4.328082 32.876106 4.511127
2005-07-08 09:08:52 51°32.903 3°0.084 17.7413 4.327659 32.854369 4.780802
2005-07-08 09:09:51 51°32.958 3°0.164 17.7435 4.326921 32.829977 4.275161
2005-07-08 09:10:51 51°32.97 3°0.173 17.7438 4.324601 32.810305 4.645965
2005-07-08 09:11:51 51°32.966 3°0.153 17.7437 4.324179 32.804392 5.117896
2005-07-08 09:12:51 51°32.953 3°0.129 17.7394 4.323652 32.802258 4.34258
2005-07-08 09:13:51 51°32.935 3°0.107 17.7402 4.323336 32.801911 4.612255
2005-07-08 09:14:51 51°32.944 3°0.143 17.7504 4.323546 32.80078 4.106614
2005-07-08 09:15:51 51°33.022 3°0.283 17.771 4.323441 32.790546 4.275161
2005-07-08 09:16:51 51°33.106 3°0.46 17.7758 4.323335 32.772156 4.612255
2005-07-08 09:17:52 51°33.195 3°0.638 17.7808 4.320066 32.745047 4.443708
2005-07-08 09:18:51 51°33.256 3°0.77 17.7733 4.318379 32.723191 4.005486
2005-07-08 09:19:51 51°33.267 3°0.785 17.7857 4.318168 32.728388 4.140324
2005-07-08 09:20:52 51°33.264 3°0.766 17.7914 4.319749 32.730726 4.174033
2005-07-08 09:21:51 51°33.251 3°0.743 17.7848 4.319539 32.728358 3.533554
2005-07-08 09:22:51 51°33.231 3°0.718 17.7859 4.318695 32.724124 4.477418
2005-07-08 09:23:52 51°33.208 3°0.692 17.7897 4.319855 32.734528 4.443708
2005-07-08 09:24:51 51°33.182 3°0.663 17.8102 4.320277 32.734608 4.174033
2005-07-08 09:25:52 51°33.154 3°0.634 17.8047 4.322596 32.736795 4.376289
2005-07-08 09:26:52 51°33.153 3°0.67 17.8058 4.322175 32.737878 4.140324
2005-07-08 09:27:51 51°33.231 3°0.771 17.8032 4.32112 32.727789 4.207742
2005-07-08 09:28:52 51°33.328 3°0.932 17.7882 4.319117 32.720715 3.76952
2005-07-08 09:29:51 51°33.418 3°1.102 17.7874 4.31859 32.722649 4.376289
2005-07-08 09:30:52 51°33.51 3°1.279 17.7894 4.317957 32.707989 4.308871
2005-07-08 09:31:52 51°33.574 3°1.398 17.7804 4.317324 32.71019 4.072905
2005-07-08 09:32:52 51°33.58 3°1.411 17.7715 4.315215 32.699892 3.668392
2005-07-08 09:33:51 51°33.574 3°1.402 17.7626 4.314372 32.701471 3.80323
2005-07-08 09:34:51 51°33.56 3°1.386 17.7619 4.31395 32.699643 3.76952
2005-07-08 09:35:51 51°33.54 3°1.368 17.758 4.313528 32.698979 3.971777
2005-07-08 09:36:51 51°33.537 3°1.353 17.7581 4.314161 32.706084 4.578546
2005-07-08 09:37:51 51°33.584 3°1.344 17.7518 4.31163 32.684064 3.331298
2005-07-08 09:38:52 51°33.567 3°1.441 17.6959 4.313317 32.705338 3.600973
2005-07-08 09:39:52 51°33.465 3°1.411 17.7323 4.312896 32.739639 3.904358
2005-07-08 09:40:52 51°33.431 3°1.374 17.7563 4.31047 32.690524 3.668392
2005-07-08 09:41:51 51°33.414 3°1.367 17.7467 4.310576 32.682109 3.600973
2005-07-08 09:42:52 51°33.393 3°1.353 17.7426 4.308994 32.66929 4.140324
2005-07-08 09:43:51 51°33.373 3°1.338 17.7444 4.311736 32.698919 4.645965
2005-07-08 09:44:51 51°33.353 3°1.322 17.7416 4.311419 32.697403 4.174033
2005-07-08 09:45:52 51°33.333 3°1.303 17.7283 4.31163 32.698026 4.005486
2005-07-08 09:46:51 51°33.309 3°1.279 17.7185 4.310154 32.697738 3.735811
2005-07-08 09:47:51 51°33.257 3°1.228 17.726 4.309943 32.703522 3.836939
2005-07-08 09:48:52 51°33.192 3°1.13 17.762 4.311314 32.701748 3.836939
2005-07-08 09:49:51 51°33.139 3°0.999 17.7829 4.312263 32.68419 4.443708
2005-07-08 09:50:52 51°33.1 3°0.87 17.7975 4.313739 32.680418 3.870648
2005-07-08 09:51:52 51°33.066 3°0.756 17.7895 4.314793 32.680631 3.836939
2005-07-08 09:52:51 51°33.036 3°0.661 17.7856 4.313528 32.676309 4.713383
2005-07-08 09:53:52 51°33.007 3°0.581 17.7873 4.314055 32.676126 3.533554
2005-07-08 09:54:52 51°32.978 3°0.513 17.7809 4.313317 32.670459 4.039195
2005-07-08 09:55:51 51°32.95 3°0.454 17.7624 4.313001 32.676493 3.567264
2005-07-08 09:56:51 51°32.922 3°0.394 17.7612 4.313317 32.690795 4.207742
2005-07-08 09:57:52 51°32.894 3°0.335 17.7596 4.312895 32.685479 4.005486
2005-07-08 09:58:52 51°32.866 3°0.275 17.7575 4.312157 32.680972 3.76952
2005-07-08 09:59:52 51°32.84 3°0.213 17.7696 4.313528 32.697234 3.19646
2005-07-08 10:00:52 51°32.814 3°0.145 17.778 4.314371 32.692167 3.263879
2005-07-08 10:01:51 51°32.789 3°0.077 17.7702 4.31511 32.691442 3.398717
2005-07-08 10:02:51 51°32.765 3°0.007 17.7665 4.315321 32.700785 3.668392
2005-07-08 10:03:51 51°32.74 2°59.94 17.7643 4.314688 32.697753 3.19646
2005-07-08 10:04:52 51°32.715 2°59.871 17.7661 4.313739 32.689716 2.994204
2005-07-08 10:05:52 51°32.689 2°59.805 17.7657 4.315531 32.704897 3.80323
2005-07-08 10:06:52 51°32.661 2°59.742 17.7672 4.316059 32.707617 3.499845
2005-07-08 10:07:52 51°32.636 2°59.673 17.7686 4.316059 32.709362 4.140324
2005-07-08 10:08:51 51°32.612 2°59.573 17.7843 4.316902 32.712434 3.466136
2005-07-08 10:09:52 51°32.595 2°59.453 17.7596 4.318273 32.715318 3.263879
2005-07-08 10:10:51 51°32.584 2°59.329 17.7498 4.318484 32.735142 3.027913
2005-07-08 10:11:52 51°32.581 2°59.202 17.621 4.320804 32.762371 3.600973
2005-07-08 10:12:51 51°32.588 2°59.088 17.5249 4.329665 32.951226 3.870648
2005-07-08 10:13:52 51°32.594 2°58.982 17.466 4.332407 33.038316 4.106614
2005-07-08 10:14:51 51°32.594 2°58.902 17.4474 4.336732 33.119072 3.499845
2005-07-08 10:15:51 51°32.588 2°58.841 17.4358 4.33747 33.143211 3.162751
2005-07-08 10:16:52 51°32.576 2°58.788 17.4222 4.337681 33.154535 3.533554
2005-07-08 10:17:52 51°32.56 2°58.746 17.4316 4.337787 33.160795 3.027913
2005-07-08 10:18:51 51°32.543 2°58.711 17.4237 4.338525 33.164721 3.19646
2005-07-08 10:19:52 51°32.524 2°58.681 17.4141 4.338631 33.170983 2.893076
2005-07-08 10:20:51 51°32.505 2°58.654 17.4178 4.338314 33.173642 3.23017
2005-07-08 10:21:52 51°32.485 2°58.63 17.4426 4.336733 33.164291 3.129042
2005-07-08 10:22:51 51°32.467 2°58.601 17.4323 4.333358 33.119378 2.926785
2005-07-08 10:23:51 51°32.45 2°58.516 17.4293 4.333569 33.128913 3.432426
2005-07-08 10:24:51 51°32.412 2°58.401 17.4267 4.338209 33.170953 3.23017
2005-07-08 10:25:51 51°32.385 2°58.287 17.4237 4.339264 33.181755 3.567264
2005-07-08 10:26:52 51°32.352 2°58.177 17.4169 4.339264 33.186525 3.904358
2005-07-08 10:27:51 51°32.31 2°58.083 17.417 4.339685 33.191324 3.870648
2005-07-08 10:28:51 51°32.268 2°58.007 17.4204 4.339896 33.194917 4.477418
2005-07-08 10:29:51 51°32.232 2°57.946 17.4213 4.339685 33.187746 4.612255
2005-07-08 10:30:52 51°32.198 2°57.891 17.4237 4.340951 33.199759 4.578546
2005-07-08 10:31:51 51°32.163 2°57.844 17.4273 4.340002 33.190451 5.792084
2005-07-08 10:32:52 51°32.132 2°57.8 17.4206 4.341056 33.196485 5.185315
2005-07-08 10:33:52 51°32.101 2°57.757 17.4242 4.341795 33.206972 5.758375
2005-07-08 10:34:51 51°32.073 2°57.715 17.4204 4.342111 33.204905 5.758375
2005-07-08 10:35:51 51°32.044 2°57.672 17.4271 4.341689 33.207264 5.825794
2005-07-08 10:36:52 51°32.017 2°57.626 17.429 4.342111 33.209677 5.792084
2005-07-08 10:37:51 51°31.99 2°57.582 17.4221 4.343165 33.215711 5.792084
2005-07-08 10:38:51 51°31.964 2°57.53 17.4213 4.340002 33.189855 5.353862
2005-07-08 10:39:52 51°31.936 2°57.464 17.4205 4.341584 33.205169 6.432563
2005-07-08 10:40:51 51°31.911 2°57.394 17.4112 4.340635 33.20123 5.45499
2005-07-08 10:41:51 51°31.886 2°57.325 17.4096 4.341162 33.208125 5.623537
2005-07-08 10:42:51 51°31.86 2°57.257 17.4046 4.340635 33.208988 5.589828
2005-07-08 10:43:51 51°31.833 2°57.189 17.403 4.346118 33.254701 5.724665
2005-07-08 10:44:51 51°31.804 2°57.119 17.4011 4.34654 33.261897 5.657247
2005-07-08 10:45:51 51°31.778 2°57.031 17.3938 4.347173 33.275087 5.252734
2005-07-08 10:46:52 51°31.759 2°56.926 17.3817 4.347701 33.282592 5.724665
2005-07-08 10:47:51 51°31.754 2°56.825 17.3897 4.348228 33.293692 5.421281
2005-07-08 10:48:52 51°31.761 2°56.729 17.3851 4.347806 33.285889 5.623537
2005-07-08 10:49:51 51°31.777 2°56.649 17.385 4.34865 33.294308 5.522409
2005-07-08 10:50:51 51°31.785 2°56.596 17.3737 4.348333 33.297589 5.286443
2005-07-08 10:51:52 51°31.803 2°56.558 17.3748 4.348755 33.305395 5.724665
2005-07-08 10:52:52 51°31.879 2°56.638 17.3865 4.34749 33.289169 6.02805
2005-07-08 10:53:52 51°32.019 2°56.778 17.3812 4.347279 33.284369 5.926922
2005-07-08 10:54:51 51°32.156 2°56.947 17.3778 4.346224 33.272948 6.230306
2005-07-08 10:55:52 51°32.297 2°57.122 17.385 4.344748 33.265098 5.724665
2005-07-08 10:56:52 51°32.434 2°57.294 17.3814 4.34285 33.245261 6.196597
2005-07-08 10:57:51 51°32.572 2°57.469 17.3875 4.34053 33.227797 5.994341
2005-07-08 10:58:52 51°32.714 2°57.646 17.382 4.338104 33.205845 6.129178
2005-07-08 10:59:52 51°32.853 2°57.816 17.4239 4.336417 33.194392 5.994341
2005-07-08 11:00:51 51°32.969 2°57.96 17.4565 4.333358 33.124731 6.837076
2005-07-08 11:01:52 51°33.03 2°58.037 17.444 4.330616 33.088824 5.792084
2005-07-08 11:02:52 51°33.063 2°58.091 17.4231 4.329561 33.089322 6.466272
2005-07-08 11:03:51 51°33.065 2°58.107 17.4154 4.328507 33.090415 6.432563
2005-07-08 11:04:52 51°33.051 2°58.117 17.4268 4.32798 33.090665 7.106751
2005-07-08 11:05:52 51°33.033 2°58.124 17.4302 4.327769 33.082325 6.971913
2005-07-08 11:06:51 51°33.018 2°58.138 17.4231 4.328613 33.090128 7.005623
2005-07-08 11:07:52 51°33.048 2°58.182 17.4255 4.328085 33.088594 6.634819
2005-07-08 11:08:52 51°33.107 2°58.23 17.4159 4.328402 33.091298 6.837076
2005-07-08 11:09:52 51°33.147 2°58.292 17.4147 4.327136 33.085833 6.735947
2005-07-08 11:10:52 51°33.178 2°58.345 17.4238 4.326293 33.075057 6.971913
2005-07-08 11:11:52 51°33.203 2°58.394 17.4311 4.324922 33.055622 6.466272
2005-07-08 11:12:51 51°33.232 2°58.449 17.4363 4.325238 33.055356 7.477554
2005-07-08 11:13:51 51°33.262 2°58.506 17.4456 4.324183 33.040415 7.71352
2005-07-08 11:14:52 51°33.291 2°58.561 17.4404 4.324183 33.039228 6.870785
2005-07-08 11:15:51 51°33.322 2°58.614 17.4412 4.323761 33.036812 6.634819
2005-07-08 11:16:51 51°33.354 2°58.661 17.4372 4.324183 33.039228 6.5674
2005-07-08 11:17:51 51°33.386 2°58.711 17.4333 4.323972 33.04158 6.264016
2005-07-08 11:18:51 51°33.418 2°58.762 17.4331 4.324078 33.04248 6.297725
2005-07-08 11:19:52 51°33.452 2°58.814 17.426 4.323867 33.047207 6.971913
2005-07-08 11:20:52 51°33.485 2°58.862 17.4437 4.319333 33.008473 7.207879
2005-07-08 11:21:51 51°33.518 2°58.91 17.4421 4.319121 32.998374 6.769657
2005-07-08 11:22:52 51°33.551 2°58.961 17.4337 4.32102 33.015769 6.702238
2005-07-08 11:23:51 51°33.585 2°59.007 17.4371 4.318805 33.000413 6.971913
2005-07-08 11:24:51 51°33.618 2°59.055 17.4426 4.319016 32.998066 6.365144
2005-07-08 11:25:52 51°33.651 2°59.105 17.4435 4.317118 32.977713 6.769657
2005-07-08 11:26:52 51°33.683 2°59.153 17.44 4.316696 32.975888 6.533691
2005-07-08 11:27:52 51°33.716 2°59.201 17.4425 4.313322 32.949445 7.073042
2005-07-08 11:28:52 51°33.75 2°59.25 17.4328 4.3129 32.944661 5.825794
2005-07-08 11:29:51 51°33.783 2°59.305 17.4319 4.312056 32.946332 6.466272
2005-07-08 11:30:51 51°33.807 2°59.374 17.4148 4.311951 32.947799 6.5674
2005-07-08 11:31:52 51°33.822 2°59.457 17.4161 4.311318 32.94713 6.264016
2005-07-08 11:32:51 51°33.829 2°59.548 17.4192 4.309631 32.934496 6.129178
2005-07-08 11:33:52 51°33.823 2°59.64 17.4194 4.307417 32.916766 6.499982
2005-07-08 11:34:52 51°33.811 2°59.7 17.4152 4.307733 32.918877 6.331435
2005-07-08 11:35:52 51°33.806 2°59.756 17.4077 4.304253 32.893888 6.432563
2005-07-08 11:36:51 51°33.887 2°59.78 17.4119 4.306468 32.915758 6.230306
2005-07-08 11:37:52 51°34.059 2°59.726 17.4128 4.304253 32.892115 6.432563
2005-07-08 11:38:52 51°34.234 2°59.65 17.4218 4.300879 32.8633 5.724665
2005-07-08 11:39:52 51°34.41 2°59.575 17.4556 4.296555 32.81165 6.634819
2005-07-08 11:40:52 51°34.592 2°59.498 17.4995 4.297292 32.791453 6.870785
2005-07-08 11:41:51 51°34.774 2°59.421 17.542 4.296343 32.753396 7.309007
2005-07-08 11:42:52 51°34.95 2°59.293 17.6317 4.295077 32.705113 6.02805
2005-07-08 11:43:52 51°34.989 2°59.09 17.7738 4.293915 32.616467 6.870785
2005-07-08 11:44:52 51°34.957 2°58.992 17.8214 4.296866 32.539948 5.252734
2005-07-08 11:45:52 51°34.946 2°58.979 17.6508 4.290012 32.453123 5.016768
2005-07-08 11:46:52 51°34.929 2°58.96 17.5611 4.290541 32.597139 4.814512
2005-07-08 11:47:52 51°34.909 2°58.94 17.5542 4.293179 32.682532 4.91564
2005-07-08 11:48:52 51°34.887 2°58.919 17.601 4.290226 32.648659 4.949349
2005-07-08 11:49:52 51°34.862 2°58.879 17.6499 4.290014 32.610709 4.308871
2005-07-08 11:50:51 51°34.822 2°58.759 17.7278 4.288115 32.545769 4.713383
2005-07-08 11:51:51 51°34.787 2°58.611 17.6729 4.286533 32.500492 5.219024
2005-07-08 11:52:51 51°34.759 2°58.476 17.6508 4.288537 32.558052 4.679674
2005-07-08 11:53:52 51°34.729 2°58.35 17.6318 4.30309 32.693755 4.848221
2005-07-08 11:54:52 51°34.702 2°58.239 17.6616 4.303406 32.705778 4.612255
2005-07-08 11:55:51 51°34.678 2°58.136 17.674 4.3033 32.68155 4.713383
2005-07-08 11:56:52 51°34.656 2°58.053 17.7111 4.303511 32.674598 4.443708
2005-07-08 11:57:52 51°34.634 2°57.986 17.7429 4.305514 32.661318 4.443708
2005-07-08 11:58:51 51°34.61 2°57.928 17.7475 4.307412 32.659378 4.477418
2005-07-08 11:59:52 51°34.584 2°57.869 17.7794 4.307623 32.648381 4.140324
2005-07-08 12:00:52 51°34.558 2°57.808 17.8144 4.308677 32.638153 4.409999
2005-07-08 12:01:52 51°34.533 2°57.746 17.8308 4.311629 32.634141 3.971777
2005-07-08 12:02:52 51°34.507 2°57.683 17.8452 4.312789 32.631203 4.106614
2005-07-08 12:03:52 51°34.482 2°57.62 17.8333 4.314265 32.636154 3.870648
2005-07-08 12:04:51 51°34.455 2°57.56 17.8239 4.314476 32.646627 3.971777
2005-07-08 12:05:51 51°34.427 2°57.503 17.8033 4.311207 32.622463 4.308871
2005-07-08 12:06:51 51°34.397 2°57.446 17.7183 4.314898 32.682685 3.668392
2005-07-08 12:07:52 51°34.365 2°57.388 17.6877 4.312685 32.720941 3.466136
2005-07-08 12:08:52 51°34.333 2°57.335 17.6723 4.312053 32.738901 3.331298
2005-07-08 12:09:52 51°34.296 2°57.271 17.6422 4.306042 32.708317 3.162751
2005-07-08 12:10:52 51°34.262 2°57.174 17.6632 4.304566 32.707455 2.960494
2005-07-08 12:11:51 51°34.239 2°57.064 17.6751 4.304039 32.683733 3.76952
2005-07-08 12:12:51 51°34.221 2°56.948 17.6794 4.309733 32.730304 3.19646
2005-07-08 12:13:51 51°34.216 2°56.832 17.6988 4.311631 32.739407 3.365007
2005-07-08 12:14:51 51°34.225 2°56.721 17.7381 4.311209 32.718331 3.567264
2005-07-08 12:15:52 51°34.246 2°56.617 17.7736 4.313739 32.711241 3.297589
2005-07-08 12:16:52 51°34.264 2°56.545 17.8053 4.316059 32.701802 3.297589
2005-07-08 12:17:52 51°34.273 2°56.493 17.8247 4.316375 32.682403 2.926785
2005-07-08 12:18:51 51°34.281 2°56.439 17.8316 4.318167 32.682477 3.600973
2005-07-08 12:19:52 51°34.348 2°56.261 17.7956 4.320592 32.696605 3.398717
2005-07-08 12:20:51 51°34.393 2°55.98 17.7773 4.319749 32.724908 3.432426
2005-07-08 12:21:51 51°34.418 2°55.632 17.7446 4.316797 32.710378 3.668392
2005-07-08 12:22:51 51°34.449 2°55.29 17.7397 4.315848 32.724453 3.365007
2005-07-08 12:23:51 51°34.517 2°54.963 17.774 4.316481 32.734474 3.432426
2005-07-08 12:24:51 51°34.582 2°54.707 17.7957 4.320488 32.73814 3.600973
2005-07-08 12:25:51 51°34.665 2°54.593 17.8156 4.327342 32.777543 3.668392
2005-07-08 12:26:51 51°34.735 2°54.61 17.8476 4.325549 32.743754 3.499845
2005-07-08 12:27:52 51°34.758 2°54.66 17.8593 4.329767 32.760248 3.466136
2005-07-08 12:28:52 51°34.761 2°54.674 17.8698 4.336727 32.811541 3.061623
2005-07-08 12:29:51 51°34.756 2°54.677 17.8312 4.336832 32.811851 3.567264
2005-07-08 12:30:52 51°34.749 2°54.68 17.8304 4.335356 32.824404 4.34258
2005-07-08 12:31:52 51°34.742 2°54.685 17.834 4.334829 32.819942 3.365007
2005-07-08 12:32:51 51°34.734 2°54.69 17.85 4.334512 32.813187 4.106614
2005-07-08 12:33:51 51°34.738 2°54.733 17.8514 4.33525 32.80604 3.870648
2005-07-08 12:34:51 51°34.778 2°54.752 17.8318 4.334512 32.802125 4.039195
2005-07-08 12:35:53 51°34.768 2°54.763 17.7954 4.331876 32.796122 4.174033
2005-07-08 12:36:52 51°34.77 2°54.709 17.7182 4.330822 32.817499 3.061623
2005-07-08 12:37:51 51°34.763 2°54.663 17.7413 4.330401 32.872364 2.724529
2005-07-08 12:38:52 51°34.758 2°54.655 17.7416 4.329452 32.835072 3.432426
2005-07-08 12:39:52 51°34.753 2°54.664 17.6577 4.330507 32.865648 3.061623
2005-07-08 12:40:52 51°34.747 2°54.67 17.652 4.329664 32.914768 2.893076
2005-07-08 12:41:51 51°34.741 2°54.676 17.6693 4.329031 32.902934 3.23017
2005-07-08 12:42:52 51°34.733 2°54.67 17.6557 4.326711 32.879121 3.23017
2005-07-08 12:43:52 51°34.665 2°54.574 17.6432 4.326184 32.886962 3.061623
2005-07-08 12:44:51 51°34.474 2°54.528 17.7746 4.325129 32.856897 2.960494
2005-07-08 12:45:51 51°34.257 2°54.514 17.8031 4.327448 32.794168 2.488563
2005-07-08 12:46:52 51°34.034 2°54.516 17.7739 4.316586 32.691737 3.095332
2005-07-08 12:47:51 51°33.817 2°54.508 17.7743 4.30583 32.616955 3.061623
2005-07-08 12:48:52 51°33.594 2°54.498 17.7619 4.32439 32.774678 2.758238
2005-07-08 12:49:51 51°33.375 2°54.494 17.7543 4.323335 32.775071 3.499845
2005-07-08 12:50:51 51°33.155 2°54.49 17.7361 4.325761 32.802622 3.331298
2005-07-08 12:51:51 51°32.934 2°54.485 17.6914 4.330296 32.870883 3.129042
2005-07-08 12:52:51 51°32.714 2°54.48 17.5653 4.333671 32.944117 2.994204
2005-07-08 12:53:51 51°32.491 2°54.481 17.4896 4.335465 33.033625 2.893076
2005-07-08 12:54:51 51°32.269 2°54.484 17.4806 4.339473 33.118126 3.297589
2005-07-08 12:55:52 51°32.047 2°54.485 17.4675 4.342004 33.153981 3.263879
2005-07-08 12:56:51 51°31.828 2°54.491 17.4436 4.345274 33.189626 3.129042
2005-07-08 12:57:51 51°31.607 2°54.495 17.3997 4.349598 33.258172 2.893076
2005-07-08 12:58:52 51°31.384 2°54.499 17.3806 4.350969 33.29381 3.600973
2005-07-08 12:59:52 51°31.16 2°54.52 17.2742 4.353606 33.337341 3.499845
2005-07-08 13:00:51 51°30.946 2°54.508 17.2384 4.354768 33.436311 3.432426
2005-07-08 13:01:52 51°30.725 2°54.482 17.2043 4.353397 33.449289 3.162751
2005-07-08 13:02:51 51°30.511 2°54.454 17.1914 4.353503 33.484066 3.19646
2005-07-08 13:03:52 51°30.3 2°54.421 17.9255 4.342745 33.288072 3.19646
2005-07-08 13:04:52 51°30.09 2°54.392 18.007 4.319747 32.612499 3.297589
2005-07-08 13:05:52 51°29.883 2°54.364 18.0375 4.313103 32.49436 3.466136
2005-07-08 13:06:51 51°29.678 2°54.334 18.059 4.314368 32.480351 3.095332
2005-07-08 13:07:51 51°29.469 2°54.299 18.0805 4.319535 32.506614 3.129042
2005-07-08 13:08:52 51°29.258 2°54.264 18.1016 4.32312 32.523001 3.634683
2005-07-08 13:09:52 51°29.048 2°54.228 18.1184 4.325439 32.517864 4.140324
2005-07-08 13:10:52 51°28.842 2°54.192 18.0372 4.330185 32.563464 4.949349
2005-07-08 13:11:52 51°28.632 2°54.192 17.8684 4.333139 32.657888 4.983059
2005-07-08 13:12:51 51°28.424 2°54.191 17.8157 4.340207 32.857874 4.612255
2005-07-08 13:13:52 51°28.211 2°54.186 18.0072 4.332297 32.767117 4.578546
2005-07-08 13:14:52 51°28 2°54.192 18.158 4.326917 32.577308 4.174033
2005-07-08 13:15:52 51°27.794 2°54.19 18.3393 4.312046 32.349587 4.443708
2005-07-08 13:16:52 51°27.589 2°54.193 18.3836 4.293273 32.060588 4.308871
2005-07-08 13:17:52 51°27.381 2°54.191 18.3427 4.290109 32.019653 4.679674
2005-07-08 13:18:51 51°27.176 2°54.196 18.2314 4.287368 32.032622 4.544836
2005-07-08 13:19:52 51°26.97 2°54.2 18.1352 4.289689 32.12675 5.117896
2005-07-08 13:20:52 51°26.762 2°54.205 18.0025 4.297916 32.285649 4.544836
2005-07-08 13:21:52 51°26.553 2°54.207 17.7814 4.310151 32.495906 4.578546
2005-07-08 13:22:51 51°26.35 2°54.21 17.7233 4.325233 32.777744 4.207742
2005-07-08 13:23:51 51°26.141 2°54.207 17.69 4.326183 32.828977 4.511127
2005-07-08 13:24:51 51°25.929 2°54.203 17.74 4.32534 32.839951 3.80323
2005-07-08 13:25:52 51°25.719 2°54.204 17.772 4.317008 32.729623 4.072905
2005-07-08 13:26:51 51°25.511 2°54.195 17.8848 4.314371 32.678803 4.511127
2005-07-08 13:27:51 51°25.301 2°54.188 17.9943 4.30857 32.538956 5.421281
2005-07-08 13:28:52 51°25.087 2°54.181 17.97 4.309728 32.471692 6.398853
2005-07-08 13:29:51 51°24.876 2°54.18 17.9197 4.318587 32.571585 5.252734
2005-07-08 13:30:52 51°24.662 2°54.176 17.8823 4.325864 32.682036 6.499982
2005-07-08 13:31:51 51°24.452 2°54.173 17.862 4.328184 32.717851 6.129178
2005-07-08 13:32:52 51°24.239 2°54.175 17.8264 4.330083 32.758273 5.252734
2005-07-08 13:33:51 51°24.037 2°54.174 18.0328 4.331454 32.797211 5.016768
2005-07-08 13:34:51 51°23.833 2°54.178 18.0944 4.308251 32.419761 5.320153
2005-07-08 13:35:51 51°23.628 2°54.162 18.1021 4.307302 32.382088 5.758375
2005-07-08 13:36:51 51°23.424 2°54.141 18.1014 4.307723 32.375936 5.185315
2005-07-08 13:37:52 51°23.217 2°54.124 18.0991 4.310571 32.401555 5.320153
2005-07-08 13:38:52 51°23.014 2°54.087 18.1204 4.311203 32.401732 5.623537
2005-07-08 13:39:52 51°22.81 2°54.057 18.1406 4.317003 32.432734 6.230306
2005-07-08 13:40:52 51°22.607 2°54.026 18.1132 4.311414 32.37899 5.859503
2005-07-08 13:41:52 51°22.406 2°54.002 18.1037 4.307829 32.369981 5.690956
2005-07-08 13:42:52 51°22.2 2°53.971 18.0952 4.307407 32.372139 5.623537
2005-07-08 13:43:52 51°21.998 2°53.941 18.33 4.305509 32.348798 5.589828
2005-07-08 13:44:51 51°21.801 2°53.908 18.9409 4.243184 31.543507 5.623537
2005-07-08 13:45:52 51°21.597 2°53.875 18.8944 4.181705 30.708933 5.589828
2005-07-08 13:46:52 51°21.396 2°53.849 18.8059 4.188243 30.80854 5.657247
2005-07-08 13:47:52 51°21.195 2°53.818 18.667 4.197523 30.93688 5.792084
2005-07-08 13:48:52 51°20.994 2°53.794 18.5789 4.207331 31.122785 5.45499
2005-07-08 13:49:51 51°20.795 2°53.767 18.5583 4.213131 31.214456 5.690956
2005-07-08 13:50:51 51°20.595 2°53.739 18.534 4.202903 31.147765 5.556118
2005-07-08 13:51:52 51°20.392 2°53.714 18.6789 4.198475 31.114937 5.657247
2005-07-08 13:52:52 51°20.193 2°53.686 18.68 4.182341 30.895258 5.45499
2005-07-08 13:53:52 51°19.993 2°53.663 18.6594 4.17612 30.847216 4.814512
2005-07-08 13:54:52 51°19.789 2°53.636 18.7288 4.165366 30.75811 4.679674
2005-07-08 13:55:51 51°19.587 2°53.606 18.7493 4.157563 30.650387 5.185315
2005-07-08 13:56:52 51°19.382 2°53.577 18.8387 4.154821 30.603008 5.286443
2005-07-08 13:57:52 51°19.179 2°53.552 18.8015 4.159354 30.578507 5.286443
2005-07-08 13:58:51 51°18.975 2°53.522 18.6641 4.16547 30.684121 5.320153
2005-07-08 13:59:51 51°18.771 2°53.504 18.5837 4.181498 30.929531 5.252734
2005-07-08 14:00:51 51°18.567 2°53.474 18.5432 4.193519 31.059408 4.747093
2005-07-08 14:01:52 51°18.363 2°53.441 18.4975 4.201111 31.146468 4.612255
2005-07-08 14:02:52 51°18.164 2°53.391 18.427 4.219142 31.333215 4.88193
2005-07-08 14:03:51 51°17.968 2°53.345 18.4205 4.228949 31.462128 4.747093
2005-07-08 14:04:52 51°17.762 2°53.321 18.4181 4.230742 31.478109 5.724665
2005-07-08 14:05:51 51°17.561 2°53.308 18.4091 4.237069 31.541648 4.814512
2005-07-08 14:06:51 51°17.358 2°53.293 18.4174 4.253202 31.69121 5.589828
2005-07-08 14:07:52 51°17.15 2°53.336 18.6047 4.239809 31.520451 5.758375
2005-07-08 14:08:51 51°16.952 2°53.394 18.5252 4.214712 31.219946 5.690956
2005-07-08 14:09:52 51°16.744 2°53.457 18.4919 4.225785 31.369711 4.983059
2005-07-08 14:10:52 51°16.538 2°53.514 18.4948 4.23169 31.431203 5.589828
2005-07-08 14:11:52 51°16.331 2°53.57 18.4292 4.236751 31.478637 5.960631
2005-07-08 14:12:51 51°16.126 2°53.628 18.357 4.269019 31.808378 5.994341
2005-07-08 14:13:51 51°15.918 2°53.703 18.3537 4.284626 31.991839 5.994341
2005-07-08 14:14:52 51°15.71 2°53.783 18.3272 4.279037 31.932404 5.792084
2005-07-08 14:15:52 51°15.505 2°53.88 18.4514 4.279987 31.959301 5.758375
2005-07-08 14:16:51 51°15.314 2°54.033 18.4868 4.277348 31.828278 5.252734
2005-07-08 14:17:51 51°15.121 2°54.208 18.3508 4.31858 32.173362 5.792084
2005-07-08 14:18:51 51°14.935 2°54.38 18.1842 4.313204 32.237582 5.151606
2005-07-08 14:19:52 51°14.755 2°54.585 18.1389 4.319006 32.40508 5.4887
2005-07-08 14:20:52 51°14.578 2°54.785 18.0415 4.314261 32.41942 5.320153
2005-07-08 14:21:51 51°14.416 2°54.973 18.1996 4.29528 32.27262 4.949349
2005-07-08 14:22:51 51°14.296 2°55.181 18.2303 4.279989 32.079388 5.421281
2005-07-08 14:23:51 51°14.192 2°55.349 18.2083 3.904877 28.927874 5.151606
2005-07-08 14:24:52 51°14.082 2°55.433 18.1999 3.642147 26.779795 5.320153
2005-07-08 14:25:51 51°13.982 2°55.507 18.2565 3.581878 26.29081 5.421281
2005-07-08 14:26:51 51°13.881 2°55.588 18.3183 3.473365 25.376806 5.4887
2005-07-08 14:27:51 51°13.768 2°55.691 18.2862 3.466518 25.314808 5.421281
2005-07-08 14:28:52 51°13.68 2°55.837 19.1952 3.188578 23.05747 7.848358
2005-07-08 14:29:52 51°13.636 2°55.936 19.3277 3.58218 25.539996 8.691093
2005-07-08 14:30:52 51°13.604 2°56.022 18.4854 2.521824 17.368001 10.039469
2005-07-08 14:31:52 51°13.597 2°56.094 18.392 2.475563 17.337736 10.646238
2005-07-08 14:32:52 51°13.596 2°56.104 18.3302 2.168748 15.035049 12.601383